sensor_id;sensor_type;location;lat;lon;timestamp;P1;durP1;ratioP1;P2;durP2;ratioP2
69280;SDS011;56392;51.082;17.080;2023-08-17T00:04:14;8.50;;;3.07;;
69280;SDS011;56392;51.082;17.080;2023-08-17T00:09:39;7.13;;;2.90;;
69280;SDS011;56392;51.082;17.080;2023-08-17T00:15:05;7.13;;;2.72;;
69280;SDS011;56392;51.082;17.080;2023-08-17T00:20:29;7.35;;;3.00;;
69280;SDS011;56392;51.082;17.080;2023-08-17T00:25:54;10.03;;;3.00;;
69280;SDS011;56392;51.082;17.080;2023-08-17T00:31:18;7.28;;;2.97;;
69280;SDS011;56392;51.082;17.080;2023-08-17T00:36:42;10.57;;;3.05;;
69280;SDS011;56392;51.082;17.080;2023-08-17T00:42:07;7.70;;;3.30;;
69280;SDS011;56392;51.082;17.080;2023-08-17T00:47:30;7.25;;;2.95;;
69280;SDS011;56392;51.082;17.080;2023-08-17T00:52:53;7.38;;;2.70;;
69280;SDS011;56392;51.082;17.080;2023-08-17T00:58:22;6.33;;;2.50;;
69280;SDS011;56392;51.082;17.080;2023-08-17T01:03:45;6.33;;;2.70;;
69280;SDS011;56392;51.082;17.080;2023-08-17T01:09:08;6.70;;;2.72;;
69280;SDS011;56392;51.082;17.080;2023-08-17T01:14:38;7.35;;;2.80;;
69280;SDS011;56392;51.082;17.080;2023-08-17T01:20:13;8.33;;;3.00;;
69280;SDS011;56392;51.082;17.080;2023-08-17T01:25:40;7.70;;;3.10;;
69280;SDS011;56392;51.082;17.080;2023-08-17T01:31:08;8.70;;;3.17;;
69280;SDS011;56392;51.082;17.080;2023-08-17T01:36:37;8.53;;;3.23;;
69280;SDS011;56392;51.082;17.080;2023-08-17T01:42:07;9.38;;;3.42;;
69280;SDS011;56392;51.082;17.080;2023-08-17T01:47:31;12.60;;;3.45;;
69280;SDS011;56392;51.082;17.080;2023-08-17T01:52:54;8.87;;;3.40;;
69280;SDS011;56392;51.082;17.080;2023-08-17T01:58:18;9.20;;;3.97;;
69280;SDS011;56392;51.082;17.080;2023-08-17T02:03:41;7.80;;;3.33;;
69280;SDS011;56392;51.082;17.080;2023-08-17T02:09:04;8.57;;;2.95;;
69280;SDS011;56392;51.082;17.080;2023-08-17T02:14:29;8.07;;;2.97;;
69280;SDS011;56392;51.082;17.080;2023-08-17T02:19:53;9.07;;;3.10;;
69280;SDS011;56392;51.082;17.080;2023-08-17T02:25:16;8.48;;;3.38;;
69280;SDS011;56392;51.082;17.080;2023-08-17T02:30:41;9.13;;;3.13;;
69280;SDS011;56392;51.082;17.080;2023-08-17T02:36:04;7.72;;;2.83;;
69280;SDS011;56392;51.082;17.080;2023-08-17T02:41:28;8.05;;;3.00;;
69280;SDS011;56392;51.082;17.080;2023-08-17T02:46:55;6.97;;;3.20;;
69280;SDS011;56392;51.082;17.080;2023-08-17T02:52:19;8.93;;;2.87;;
69280;SDS011;56392;51.082;17.080;2023-08-17T02:57:42;9.80;;;3.10;;
69280;SDS011;56392;51.082;17.080;2023-08-17T03:03:06;9.60;;;3.00;;
69280;SDS011;56392;51.082;17.080;2023-08-17T03:08:29;6.73;;;2.70;;
69280;SDS011;56392;51.082;17.080;2023-08-17T03:13:52;8.55;;;2.85;;
69280;SDS011;56392;51.082;17.080;2023-08-17T03:19:23;7.97;;;3.28;;
69280;SDS011;56392;51.082;17.080;2023-08-17T03:24:48;6.83;;;3.13;;
69280;SDS011;56392;51.082;17.080;2023-08-17T03:30:11;7.53;;;3.20;;
69280;SDS011;56392;51.082;17.080;2023-08-17T03:35:35;7.88;;;3.28;;
69280;SDS011;56392;51.082;17.080;2023-08-17T03:40:58;9.40;;;3.30;;
69280;SDS011;56392;51.082;17.080;2023-08-17T03:46:26;8.80;;;3.50;;
69280;SDS011;56392;51.082;17.080;2023-08-17T03:51:51;8.25;;;3.42;;
69280;SDS011;56392;51.082;17.080;2023-08-17T03:57:14;7.97;;;3.25;;
69280;SDS011;56392;51.082;17.080;2023-08-17T04:02:39;11.43;;;4.20;;
69280;SDS011;56392;51.082;17.080;2023-08-17T04:08:04;10.70;;;3.90;;
69280;SDS011;56392;51.082;17.080;2023-08-17T04:13:27;11.90;;;3.90;;
69280;SDS011;56392;51.082;17.080;2023-08-17T04:18:51;9.60;;;4.60;;
69280;SDS011;56392;51.082;17.080;2023-08-17T04:24:15;9.40;;;4.18;;
69280;SDS011;56392;51.082;17.080;2023-08-17T04:29:39;9.98;;;4.60;;
69280;SDS011;56392;51.082;17.080;2023-08-17T04:35:03;9.47;;;4.13;;
69280;SDS011;56392;51.082;17.080;2023-08-17T04:40:28;8.90;;;4.37;;
69280;SDS011;56392;51.082;17.080;2023-08-17T04:45:52;9.35;;;4.55;;
69280;SDS011;56392;51.082;17.080;2023-08-17T04:51:17;8.90;;;4.70;;
69280;SDS011;56392;51.082;17.080;2023-08-17T04:56:41;10.03;;;4.90;;
69280;SDS011;56392;51.082;17.080;2023-08-17T05:02:05;10.45;;;5.00;;
69280;SDS011;56392;51.082;17.080;2023-08-17T05:07:28;8.55;;;4.10;;
69280;SDS011;56392;51.082;17.080;2023-08-17T05:12:52;9.70;;;4.00;;
69280;SDS011;56392;51.082;17.080;2023-08-17T05:18:17;12.15;;;3.90;;
69280;SDS011;56392;51.082;17.080;2023-08-17T05:23:41;9.93;;;4.18;;
69280;SDS011;56392;51.082;17.080;2023-08-17T05:29:08;8.70;;;3.87;;
69280;SDS011;56392;51.082;17.080;2023-08-17T05:34:31;8.60;;;3.63;;
69280;SDS011;56392;51.082;17.080;2023-08-17T05:39:54;8.93;;;4.00;;
69280;SDS011;56392;51.082;17.080;2023-08-17T05:45:19;10.23;;;3.78;;
69280;SDS011;56392;51.082;17.080;2023-08-17T05:50:42;8.93;;;3.87;;
69280;SDS011;56392;51.082;17.080;2023-08-17T05:56:05;9.85;;;3.60;;
69280;SDS011;56392;51.082;17.080;2023-08-17T06:01:29;10.98;;;3.75;;
69280;SDS011;56392;51.082;17.080;2023-08-17T06:06:53;7.90;;;3.30;;
69280;SDS011;56392;51.082;17.080;2023-08-17T06:12:16;10.07;;;3.63;;
69280;SDS011;56392;51.082;17.080;2023-08-17T06:17:41;7.65;;;3.70;;
69280;SDS011;56392;51.082;17.080;2023-08-17T06:23:05;9.47;;;3.47;;
69280;SDS011;56392;51.082;17.080;2023-08-17T06:28:28;6.93;;;3.43;;
69280;SDS011;56392;51.082;17.080;2023-08-17T06:33:52;8.23;;;3.53;;
69280;SDS011;56392;51.082;17.080;2023-08-17T06:39:15;8.68;;;3.15;;
69280;SDS011;56392;51.082;17.080;2023-08-17T06:44:39;8.23;;;3.60;;
69280;SDS011;56392;51.082;17.080;2023-08-17T06:50:06;8.75;;;3.53;;
69280;SDS011;56392;51.082;17.080;2023-08-17T06:55:30;10.25;;;3.30;;
69280;SDS011;56392;51.082;17.080;2023-08-17T07:00:54;8.47;;;3.90;;
69280;SDS011;56392;51.082;17.080;2023-08-17T07:06:25;9.77;;;3.60;;
69280;SDS011;56392;51.082;17.080;2023-08-17T07:11:50;9.00;;;3.75;;
69280;SDS011;56392;51.082;17.080;2023-08-17T07:17:13;10.37;;;3.90;;
69280;SDS011;56392;51.082;17.080;2023-08-17T07:22:41;10.17;;;3.73;;
69280;SDS011;56392;51.082;17.080;2023-08-17T07:28:07;8.13;;;3.78;;
69280;SDS011;56392;51.082;17.080;2023-08-17T07:33:35;10.15;;;4.10;;
69280;SDS011;56392;51.082;17.080;2023-08-17T07:39:03;10.43;;;4.00;;
69280;SDS011;56392;51.082;17.080;2023-08-17T07:44:28;9.32;;;3.80;;
69280;SDS011;56392;51.082;17.080;2023-08-17T07:49:52;9.50;;;3.90;;
69280;SDS011;56392;51.082;17.080;2023-08-17T07:55:17;8.93;;;4.10;;
69280;SDS011;56392;51.082;17.080;2023-08-17T08:00:43;8.43;;;3.53;;
69280;SDS011;56392;51.082;17.080;2023-08-17T08:06:06;8.02;;;3.30;;
69280;SDS011;56392;51.082;17.080;2023-08-17T08:11:32;8.18;;;3.53;;
69280;SDS011;56392;51.082;17.080;2023-08-17T08:16:55;7.93;;;3.40;;
69280;SDS011;56392;51.082;17.080;2023-08-17T08:22:18;7.82;;;3.70;;
69280;SDS011;56392;51.082;17.080;2023-08-17T08:27:43;11.65;;;3.72;;
69280;SDS011;56392;51.082;17.080;2023-08-17T08:33:06;8.33;;;3.40;;
69280;SDS011;56392;51.082;17.080;2023-08-17T08:38:30;7.18;;;3.40;;
69280;SDS011;56392;51.082;17.080;2023-08-17T08:43:55;7.63;;;3.38;;
69280;SDS011;56392;51.082;17.080;2023-08-17T08:49:20;7.43;;;3.20;;
69280;SDS011;56392;51.082;17.080;2023-08-17T08:54:47;7.50;;;3.17;;
69280;SDS011;56392;51.082;17.080;2023-08-17T09:00:14;8.70;;;3.40;;
69280;SDS011;56392;51.082;17.080;2023-08-17T09:05:39;8.05;;;3.20;;
69280;SDS011;56392;51.082;17.080;2023-08-17T09:11:03;6.73;;;3.50;;
69280;SDS011;56392;51.082;17.080;2023-08-17T09:16:29;7.93;;;3.83;;
69280;SDS011;56392;51.082;17.080;2023-08-17T09:21:54;8.73;;;3.33;;
69280;SDS011;56392;51.082;17.080;2023-08-17T09:27:17;7.17;;;3.30;;
69280;SDS011;56392;51.082;17.080;2023-08-17T09:32:43;7.30;;;3.58;;
69280;SDS011;56392;51.082;17.080;2023-08-17T09:38:06;7.55;;;3.55;;
69280;SDS011;56392;51.082;17.080;2023-08-17T09:43:29;8.30;;;3.80;;
69280;SDS011;56392;51.082;17.080;2023-08-17T09:48:57;7.80;;;3.70;;
69280;SDS011;56392;51.082;17.080;2023-08-17T09:54:24;6.72;;;3.70;;
69280;SDS011;56392;51.082;17.080;2023-08-17T09:59:48;12.38;;;4.18;;
69280;SDS011;56392;51.082;17.080;2023-08-17T10:05:14;6.93;;;3.90;;
69280;SDS011;56392;51.082;17.080;2023-08-17T10:10:42;7.05;;;3.83;;
69280;SDS011;56392;51.082;17.080;2023-08-17T10:16:08;8.70;;;3.33;;
69280;SDS011;56392;51.082;17.080;2023-08-17T10:21:43;8.23;;;3.50;;
69280;SDS011;56392;51.082;17.080;2023-08-17T10:27:11;7.53;;;3.60;;
69280;SDS011;56392;51.082;17.080;2023-08-17T10:32:36;8.32;;;3.70;;
69280;SDS011;56392;51.082;17.080;2023-08-17T10:38:07;6.97;;;3.67;;
69280;SDS011;56392;51.082;17.080;2023-08-17T10:43:32;6.40;;;3.50;;
69280;SDS011;56392;51.082;17.080;2023-08-17T10:48:55;7.97;;;3.90;;
69280;SDS011;56392;51.082;17.080;2023-08-17T10:54:25;7.57;;;3.72;;
69280;SDS011;56392;51.082;17.080;2023-08-17T11:00:04;7.73;;;3.93;;
69280;SDS011;56392;51.082;17.080;2023-08-17T11:05:36;7.68;;;3.72;;
69280;SDS011;56392;51.082;17.080;2023-08-17T11:11:03;7.90;;;3.50;;
69280;SDS011;56392;51.082;17.080;2023-08-17T11:16:27;6.30;;;3.60;;
69280;SDS011;56392;51.082;17.080;2023-08-17T11:21:50;7.65;;;3.50;;
69280;SDS011;56392;51.082;17.080;2023-08-17T11:27:16;8.65;;;3.58;;
69280;SDS011;56392;51.082;17.080;2023-08-17T11:32:39;7.57;;;3.63;;
69280;SDS011;56392;51.082;17.080;2023-08-17T11:38:03;7.07;;;3.30;;
69280;SDS011;56392;51.082;17.080;2023-08-17T11:43:30;7.07;;;3.65;;
69280;SDS011;56392;51.082;17.080;2023-08-17T11:48:54;6.85;;;3.50;;
69280;SDS011;56392;51.082;17.080;2023-08-17T11:54:17;6.53;;;3.63;;
69280;SDS011;56392;51.082;17.080;2023-08-17T11:59:42;8.00;;;4.00;;
69280;SDS011;56392;51.082;17.080;2023-08-17T12:05:05;7.15;;;3.80;;
69280;SDS011;56392;51.082;17.080;2023-08-17T12:10:30;8.90;;;4.20;;
69280;SDS011;56392;51.082;17.080;2023-08-17T12:15:55;7.25;;;4.10;;
69280;SDS011;56392;51.082;17.080;2023-08-17T12:21:20;8.13;;;3.95;;
69280;SDS011;56392;51.082;17.080;2023-08-17T12:26:47;13.00;;;4.43;;
69280;SDS011;56392;51.082;17.080;2023-08-17T12:32:12;9.20;;;4.63;;
69280;SDS011;56392;51.082;17.080;2023-08-17T12:37:38;7.70;;;4.25;;
69280;SDS011;56392;51.082;17.080;2023-08-17T12:43:01;8.88;;;4.30;;
69280;SDS011;56392;51.082;17.080;2023-08-17T12:48:26;9.90;;;5.07;;
69280;SDS011;56392;51.082;17.080;2023-08-17T12:53:49;7.43;;;4.50;;
69280;SDS011;56392;51.082;17.080;2023-08-17T12:59:13;9.07;;;4.63;;
69280;SDS011;56392;51.082;17.080;2023-08-17T13:04:38;8.83;;;4.30;;
69280;SDS011;56392;51.082;17.080;2023-08-17T13:10:02;10.30;;;4.88;;
69280;SDS011;56392;51.082;17.080;2023-08-17T13:15:25;8.68;;;4.60;;
69280;SDS011;56392;51.082;17.080;2023-08-17T13:20:50;7.73;;;4.50;;
69280;SDS011;56392;51.082;17.080;2023-08-17T13:26:13;9.73;;;4.53;;
69280;SDS011;56392;51.082;17.080;2023-08-17T13:31:36;9.88;;;5.00;;
69280;SDS011;56392;51.082;17.080;2023-08-17T13:37:01;10.40;;;5.10;;
69280;SDS011;56392;51.082;17.080;2023-08-17T13:42:25;13.67;;;5.03;;
69280;SDS011;56392;51.082;17.080;2023-08-17T13:47:51;7.88;;;5.00;;
69280;SDS011;56392;51.082;17.080;2023-08-17T13:53:16;12.77;;;5.50;;
69280;SDS011;56392;51.082;17.080;2023-08-17T13:58:40;8.40;;;4.80;;
69280;SDS011;56392;51.082;17.080;2023-08-17T14:04:03;7.80;;;4.85;;
69280;SDS011;56392;51.082;17.080;2023-08-17T14:09:29;7.50;;;4.28;;
69280;SDS011;56392;51.082;17.080;2023-08-17T14:14:53;10.60;;;5.20;;
69280;SDS011;56392;51.082;17.080;2023-08-17T14:20:16;9.32;;;5.07;;
69280;SDS011;56392;51.082;17.080;2023-08-17T14:25:41;8.80;;;5.20;;
69280;SDS011;56392;51.082;17.080;2023-08-17T14:31:06;11.00;;;5.70;;
69280;SDS011;56392;51.082;17.080;2023-08-17T14:36:29;9.23;;;5.40;;
69280;SDS011;56392;51.082;17.080;2023-08-17T14:41:56;9.00;;;5.57;;
69280;SDS011;56392;51.082;17.080;2023-08-17T14:47:19;9.40;;;5.40;;
69280;SDS011;56392;51.082;17.080;2023-08-17T14:52:45;12.03;;;7.20;;
69280;SDS011;56392;51.082;17.080;2023-08-17T14:58:09;24.08;;;4.15;;
69280;SDS011;56392;51.082;17.080;2023-08-17T15:03:35;34.45;;;3.72;;
69280;SDS011;56392;51.082;17.080;2023-08-17T15:08:59;12.37;;;3.60;;
69280;SDS011;56392;51.082;17.080;2023-08-17T15:14:25;9.73;;;3.38;;
69280;SDS011;56392;51.082;17.080;2023-08-17T15:19:48;8.10;;;3.80;;
69280;SDS011;56392;51.082;17.080;2023-08-17T15:25:12;8.35;;;4.20;;
69280;SDS011;56392;51.082;17.080;2023-08-17T15:30:36;11.67;;;4.53;;
69280;SDS011;56392;51.082;17.080;2023-08-17T15:36:00;11.15;;;4.30;;
69280;SDS011;56392;51.082;17.080;2023-08-17T15:41:23;9.80;;;4.38;;
69280;SDS011;56392;51.082;17.080;2023-08-17T15:46:50;11.00;;;3.97;;
69280;SDS011;56392;51.082;17.080;2023-08-17T15:52:14;7.97;;;3.90;;
69280;SDS011;56392;51.082;17.080;2023-08-17T15:57:37;9.73;;;4.05;;
69280;SDS011;56392;51.082;17.080;2023-08-17T16:03:03;7.37;;;3.83;;
69280;SDS011;56392;51.082;17.080;2023-08-17T16:08:27;7.75;;;3.70;;
69280;SDS011;56392;51.082;17.080;2023-08-17T16:13:52;8.77;;;3.78;;
69280;SDS011;56392;51.082;17.080;2023-08-17T16:19:17;8.73;;;4.50;;
69280;SDS011;56392;51.082;17.080;2023-08-17T16:24:41;8.93;;;4.37;;
69280;SDS011;56392;51.082;17.080;2023-08-17T16:30:04;9.98;;;4.57;;
69280;SDS011;56392;51.082;17.080;2023-08-17T16:35:30;9.07;;;4.50;;
69280;SDS011;56392;51.082;17.080;2023-08-17T16:40:53;8.17;;;5.00;;
69280;SDS011;56392;51.082;17.080;2023-08-17T16:46:16;11.82;;;5.32;;
69280;SDS011;56392;51.082;17.080;2023-08-17T16:51:43;13.05;;;5.07;;
69280;SDS011;56392;51.082;17.080;2023-08-17T16:57:08;8.27;;;5.07;;
69280;SDS011;56392;51.082;17.080;2023-08-17T17:02:32;10.15;;;5.15;;
69280;SDS011;56392;51.082;17.080;2023-08-17T17:07:56;10.55;;;4.72;;
69280;SDS011;56392;51.082;17.080;2023-08-17T17:13:20;8.97;;;5.17;;
69280;SDS011;56392;51.082;17.080;2023-08-17T17:18:43;9.03;;;5.23;;
69280;SDS011;56392;51.082;17.080;2023-08-17T17:24:09;10.57;;;5.50;;
69280;SDS011;56392;51.082;17.080;2023-08-17T17:29:33;10.55;;;5.57;;
69280;SDS011;56392;51.082;17.080;2023-08-17T17:34:56;8.40;;;5.07;;
69280;SDS011;56392;51.082;17.080;2023-08-17T17:40:22;10.30;;;5.30;;
69280;SDS011;56392;51.082;17.080;2023-08-17T17:45:45;11.82;;;5.65;;
69280;SDS011;56392;51.082;17.080;2023-08-17T17:51:10;11.00;;;5.70;;
69280;SDS011;56392;51.082;17.080;2023-08-17T17:56:37;12.02;;;5.90;;
69280;SDS011;56392;51.082;17.080;2023-08-17T18:02:01;10.73;;;5.28;;
69280;SDS011;56392;51.082;17.080;2023-08-17T18:07:25;9.93;;;5.47;;
69280;SDS011;56392;51.082;17.080;2023-08-17T18:12:50;11.13;;;4.97;;
69280;SDS011;56392;51.082;17.080;2023-08-17T18:18:13;9.52;;;5.10;;
69280;SDS011;56392;51.082;17.080;2023-08-17T18:23:37;9.82;;;5.00;;
69280;SDS011;56392;51.082;17.080;2023-08-17T18:29:01;11.27;;;5.53;;
69280;SDS011;56392;51.082;17.080;2023-08-17T18:34:27;9.25;;;5.15;;
69280;SDS011;56392;51.082;17.080;2023-08-17T18:39:50;9.93;;;5.40;;
69280;SDS011;56392;51.082;17.080;2023-08-17T18:45:14;9.07;;;5.23;;
69280;SDS011;56392;51.082;17.080;2023-08-17T18:50:39;9.63;;;5.25;;
69280;SDS011;56392;51.082;17.080;2023-08-17T18:56:06;10.27;;;5.28;;
69280;SDS011;56392;51.082;17.080;2023-08-17T19:01:30;10.90;;;5.00;;
69280;SDS011;56392;51.082;17.080;2023-08-17T19:06:58;11.10;;;5.40;;
69280;SDS011;56392;51.082;17.080;2023-08-17T19:12:21;9.63;;;5.65;;
69280;SDS011;56392;51.082;17.080;2023-08-17T19:17:46;10.57;;;5.72;;
69280;SDS011;56392;51.082;17.080;2023-08-17T19:23:09;10.00;;;5.53;;
69280;SDS011;56392;51.082;17.080;2023-08-17T19:28:34;11.25;;;5.32;;
69280;SDS011;56392;51.082;17.080;2023-08-17T19:33:58;10.00;;;5.47;;
69280;SDS011;56392;51.082;17.080;2023-08-17T19:39:22;10.73;;;5.53;;
69280;SDS011;56392;51.082;17.080;2023-08-17T19:44:53;10.48;;;5.47;;
69280;SDS011;56392;51.082;17.080;2023-08-17T19:50:19;11.15;;;5.40;;
69280;SDS011;56392;51.082;17.080;2023-08-17T19:55:43;10.33;;;5.63;;
69280;SDS011;56392;51.082;17.080;2023-08-17T20:01:11;9.70;;;5.17;;
69280;SDS011;56392;51.082;17.080;2023-08-17T20:06:39;12.50;;;6.13;;
69280;SDS011;56392;51.082;17.080;2023-08-17T20:12:02;9.40;;;4.93;;
69280;SDS011;56392;51.082;17.080;2023-08-17T20:17:26;10.40;;;5.33;;
69280;SDS011;56392;51.082;17.080;2023-08-17T20:22:53;12.23;;;5.70;;
69280;SDS011;56392;51.082;17.080;2023-08-17T20:28:19;12.35;;;5.60;;
69280;SDS011;56392;51.082;17.080;2023-08-17T20:33:42;10.33;;;5.63;;
69280;SDS011;56392;51.082;17.080;2023-08-17T20:39:14;9.63;;;5.18;;
69280;SDS011;56392;51.082;17.080;2023-08-17T20:44:38;11.10;;;5.55;;
69280;SDS011;56392;51.082;17.080;2023-08-17T20:50:04;11.60;;;5.70;;
69280;SDS011;56392;51.082;17.080;2023-08-17T20:55:30;10.47;;;5.47;;
69280;SDS011;56392;51.082;17.080;2023-08-17T21:00:58;10.95;;;5.00;;
69280;SDS011;56392;51.082;17.080;2023-08-17T21:06:21;10.45;;;5.25;;
69280;SDS011;56392;51.082;17.080;2023-08-17T21:11:47;10.27;;;5.77;;
69280;SDS011;56392;51.082;17.080;2023-08-17T21:17:10;11.50;;;6.22;;
69280;SDS011;56392;51.082;17.080;2023-08-17T21:22:34;10.32;;;6.00;;
69280;SDS011;56392;51.082;17.080;2023-08-17T21:28:00;17.30;;;6.83;;
69280;SDS011;56392;51.082;17.080;2023-08-17T21:33:24;13.98;;;6.55;;
69280;SDS011;56392;51.082;17.080;2023-08-17T21:38:47;14.68;;;6.68;;
69280;SDS011;56392;51.082;17.080;2023-08-17T21:44:11;14.37;;;7.10;;
69280;SDS011;56392;51.082;17.080;2023-08-17T21:49:34;15.10;;;7.13;;
69280;SDS011;56392;51.082;17.080;2023-08-17T21:54:57;12.20;;;7.28;;
69280;SDS011;56392;51.082;17.080;2023-08-17T22:00:21;13.63;;;7.20;;
69280;SDS011;56392;51.082;17.080;2023-08-17T22:05:48;14.40;;;7.23;;
69280;SDS011;56392;51.082;17.080;2023-08-17T22:11:13;13.25;;;7.72;;
69280;SDS011;56392;51.082;17.080;2023-08-17T22:16:38;14.75;;;7.90;;
69280;SDS011;56392;51.082;17.080;2023-08-17T22:22:03;12.03;;;6.87;;
69280;SDS011;56392;51.082;17.080;2023-08-17T22:27:26;12.57;;;7.03;;
69280;SDS011;56392;51.082;17.080;2023-08-17T22:32:51;12.35;;;6.70;;
69280;SDS011;56392;51.082;17.080;2023-08-17T22:38:15;14.73;;;7.50;;
69280;SDS011;56392;51.082;17.080;2023-08-17T22:43:38;14.23;;;7.50;;
69280;SDS011;56392;51.082;17.080;2023-08-17T22:49:03;13.63;;;7.28;;
69280;SDS011;56392;51.082;17.080;2023-08-17T22:54:29;12.00;;;7.93;;
69280;SDS011;56392;51.082;17.080;2023-08-17T22:59:52;13.63;;;7.83;;
69280;SDS011;56392;51.082;17.080;2023-08-17T23:05:19;12.52;;;7.75;;
69280;SDS011;56392;51.082;17.080;2023-08-17T23:10:42;14.80;;;8.35;;
69280;SDS011;56392;51.082;17.080;2023-08-17T23:16:05;14.87;;;8.40;;
69280;SDS011;56392;51.082;17.080;2023-08-17T23:21:29;13.93;;;8.40;;
69280;SDS011;56392;51.082;17.080;2023-08-17T23:26:52;13.18;;;7.82;;
69280;SDS011;56392;51.082;17.080;2023-08-17T23:32:15;12.47;;;7.73;;
69280;SDS011;56392;51.082;17.080;2023-08-17T23:37:40;12.57;;;7.30;;
69280;SDS011;56392;51.082;17.080;2023-08-17T23:43:05;12.60;;;7.22;;
69280;SDS011;56392;51.082;17.080;2023-08-17T23:48:28;12.15;;;7.45;;
69280;SDS011;56392;51.082;17.080;2023-08-17T23:53:52;12.40;;;7.07;;
69280;SDS011;56392;51.082;17.080;2023-08-17T23:59:17;13.38;;;7.32;;
